createdAt,value
2023-04-18T00:01:22.366Z,8.60
2023-04-18T00:04:11.552Z,8.61
2023-04-18T00:07:02.085Z,8.64
2023-04-18T00:09:51.254Z,8.71
2023-04-18T00:12:40.496Z,8.64
2023-04-18T00:15:30.549Z,8.71
2023-04-18T00:18:19.496Z,8.77
2023-04-18T00:21:08.586Z,8.56
2023-04-18T00:23:59.071Z,8.68
2023-04-18T00:26:48.918Z,8.57
2023-04-18T00:29:37.733Z,8.56
2023-04-18T00:32:26.748Z,8.47
2023-04-18T00:35:15.871Z,8.50
2023-04-18T00:38:04.690Z,8.52
2023-04-18T00:40:54.857Z,8.51
2023-04-18T00:43:43.782Z,8.41
2023-04-18T00:46:32.755Z,8.39
2023-04-18T00:49:22.959Z,8.28
2023-04-18T00:52:13.243Z,8.18
2023-04-18T00:55:03.836Z,8.18
2023-04-18T00:57:54.425Z,8.20
2023-04-18T01:00:43.628Z,8.13
2023-04-18T01:03:34.839Z,8.15
2023-04-18T01:06:24.513Z,8.13
2023-04-18T01:09:14.736Z,8.15
2023-04-18T01:12:04.267Z,8.14
2023-04-18T01:14:54.682Z,8.12
2023-04-18T01:17:43.650Z,8.14
2023-04-18T01:20:32.671Z,8.06
2023-04-18T01:23:22.384Z,8.02
2023-04-18T01:26:13.217Z,8.04
2023-04-18T01:29:02.227Z,8.00
2023-04-18T01:31:52.349Z,7.95
2023-04-18T01:34:41.514Z,8.07
2023-04-18T01:37:32.459Z,8.01
2023-04-18T01:40:22.855Z,7.98
2023-04-18T01:43:13.466Z,7.95
2023-04-18T01:46:02.452Z,7.88
2023-04-18T01:48:51.345Z,7.85
2023-04-18T01:51:43.167Z,7.85
2023-04-18T01:54:32.088Z,7.89
2023-04-18T01:57:20.953Z,7.88
2023-04-18T02:00:14.616Z,7.88
2023-04-18T02:03:04.212Z,7.92
2023-04-18T02:05:53.931Z,7.99
2023-04-18T02:08:42.715Z,8.06
2023-04-18T02:11:31.697Z,7.99
2023-04-18T02:14:20.499Z,7.88
2023-04-18T02:17:10.685Z,8.04
2023-04-18T02:20:00.110Z,7.99
2023-04-18T02:22:49.462Z,7.95
2023-04-18T02:25:38.322Z,7.85
2023-04-18T02:28:27.252Z,7.77
2023-04-18T02:31:17.072Z,7.70
2023-04-18T02:34:07.830Z,7.71
2023-04-18T02:36:56.754Z,7.68
2023-04-18T02:39:45.832Z,7.70
2023-04-18T02:42:34.922Z,7.66
2023-04-18T02:45:23.782Z,7.63
2023-04-18T02:48:12.782Z,7.64
2023-04-18T02:51:05.421Z,7.61
2023-04-18T02:53:57.097Z,7.60
2023-04-18T02:56:48.768Z,7.60
2023-04-18T02:59:45.132Z,7.66
2023-04-18T03:02:54.180Z,7.59
2023-04-18T03:06:07.927Z,7.57
2023-04-18T03:08:57.520Z,7.49
2023-04-18T03:11:47.646Z,7.57
2023-04-18T03:14:37.966Z,7.44
2023-04-18T03:17:27.760Z,7.42
2023-04-18T03:20:17.068Z,7.47
2023-04-18T03:23:07.211Z,7.41
2023-04-18T03:25:57.203Z,7.44
2023-04-18T03:28:46.442Z,7.35
2023-04-18T03:31:35.788Z,7.30
2023-04-18T03:34:24.624Z,7.39
2023-04-18T03:37:15.056Z,7.35
2023-04-18T03:40:13.138Z,7.33
2023-04-18T03:43:03.450Z,7.27
2023-04-18T03:45:53.784Z,7.23
2023-04-18T03:48:42.983Z,7.25
2023-04-18T03:51:43.223Z,7.20
2023-04-18T03:54:32.234Z,7.28
2023-04-18T03:57:22.464Z,7.19
2023-04-18T04:00:14.127Z,7.23
2023-04-18T04:03:06.964Z,7.18
2023-04-18T04:05:56.837Z,7.21
2023-04-18T04:08:46.020Z,7.12
2023-04-18T04:11:37.172Z,7.12
2023-04-18T04:14:30.119Z,7.21
2023-04-18T04:17:19.051Z,7.28
2023-04-18T04:20:09.782Z,7.25
2023-04-18T04:22:59.988Z,7.32
2023-04-18T04:25:49.798Z,7.35
2023-04-18T04:28:55.916Z,7.41
2023-04-18T04:31:48.505Z,7.50
2023-04-18T04:34:46.802Z,7.51
2023-04-18T04:37:35.947Z,7.58
2023-04-18T04:40:35.004Z,7.57
2023-04-18T04:43:31.507Z,7.63
2023-04-18T04:46:20.919Z,7.72
2023-04-18T04:49:13.352Z,7.79
2023-04-18T04:52:02.870Z,7.90
2023-04-18T04:54:53.061Z,8.05
2023-04-18T04:57:44.780Z,8.04
2023-04-18T05:00:54.047Z,8.16
2023-04-18T05:03:43.477Z,8.27
2023-04-18T05:06:34.599Z,8.27
2023-04-18T05:09:23.560Z,8.41
2023-04-18T05:12:12.480Z,8.54
2023-04-18T05:15:01.465Z,8.46
2023-04-18T05:17:50.623Z,8.37
2023-04-18T05:20:40.146Z,8.44
2023-04-18T05:23:30.577Z,8.66
2023-04-18T05:26:19.757Z,8.69
2023-04-18T05:29:11.367Z,8.72
2023-04-18T05:32:00.462Z,8.62
2023-04-18T05:34:53.160Z,8.72
2023-04-18T05:37:42.902Z,8.83
2023-04-18T05:40:33.247Z,8.78
2023-04-18T05:43:23.330Z,8.85
2023-04-18T05:46:13.352Z,9.14
2023-04-18T05:49:03.428Z,9.30
2023-04-18T05:51:53.207Z,9.46
2023-04-18T05:54:42.219Z,9.43
2023-04-18T05:57:33.206Z,9.38
2023-04-18T06:00:23.340Z,9.35
2023-04-18T06:03:12.457Z,9.36
2023-04-18T06:06:01.637Z,9.17
2023-04-18T06:08:51.913Z,9.15
2023-04-18T06:11:40.817Z,9.23
2023-04-18T06:14:31.226Z,9.23
2023-04-18T06:17:21.357Z,9.20
2023-04-18T06:20:11.872Z,9.24
2023-04-18T06:23:05.005Z,9.57
2023-04-18T06:25:53.987Z,9.45
2023-04-18T06:28:42.993Z,9.61
2023-04-18T06:31:33.500Z,9.55
2023-04-18T06:34:22.444Z,9.65
2023-04-18T06:37:12.117Z,9.70
2023-04-18T06:40:01.008Z,9.81
2023-04-18T06:42:50.258Z,9.80
2023-04-18T06:45:40.071Z,9.76
2023-04-18T06:48:31.427Z,10.00
2023-04-18T06:51:21.013Z,9.97
2023-04-18T06:54:09.936Z,9.87
2023-04-18T06:56:59.208Z,9.89
2023-04-18T06:59:49.044Z,9.89
2023-04-18T07:02:40.020Z,9.95
2023-04-18T07:05:31.330Z,9.95
2023-04-18T07:08:20.873Z,10.08
2023-04-18T07:11:10.076Z,9.80
2023-04-18T07:13:59.482Z,9.60
2023-04-18T07:16:49.373Z,9.69
2023-04-18T07:19:39.334Z,9.89
2023-04-18T07:22:29.516Z,9.98
2023-04-18T07:25:19.241Z,9.83
2023-04-18T07:28:09.276Z,9.81
2023-04-18T07:30:58.250Z,9.92
2023-04-18T07:33:49.005Z,10.07
2023-04-18T07:36:39.155Z,10.08
2023-04-18T07:39:29.480Z,9.85
2023-04-18T07:42:18.542Z,9.96
2023-04-18T07:45:08.778Z,10.37
2023-04-18T07:47:57.663Z,10.51
2023-04-18T07:50:46.969Z,10.64
2023-04-18T07:53:35.890Z,10.59
2023-04-18T07:56:26.426Z,10.57
2023-04-18T07:59:17.066Z,10.56
2023-04-18T08:02:07.357Z,10.62
2023-04-18T08:04:56.527Z,10.76
2023-04-18T08:07:47.162Z,10.84
2023-04-18T08:10:36.865Z,11.02
2023-04-18T08:13:27.190Z,11.03
2023-04-18T08:16:17.452Z,11.35
2023-04-18T08:19:07.036Z,11.39
2023-04-18T08:21:56.004Z,11.24
2023-04-18T08:25:01.043Z,11.00
2023-04-18T08:27:53.086Z,11.14
2023-04-18T08:30:44.085Z,11.27
2023-04-18T08:33:33.118Z,11.12
2023-04-18T08:36:22.572Z,11.01
2023-04-18T08:39:15.642Z,10.91
2023-04-18T08:42:07.441Z,10.98
2023-04-18T08:44:57.976Z,10.95
2023-04-18T08:47:48.452Z,11.08
2023-04-18T08:50:37.484Z,10.96
2023-04-18T08:53:29.369Z,10.64
2023-04-18T08:56:22.349Z,10.79
2023-04-18T08:59:11.610Z,11.05
2023-04-18T09:02:01.625Z,11.09
2023-04-18T09:04:53.597Z,10.83
2023-04-18T09:07:43.665Z,10.90
2023-04-18T09:10:36.568Z,10.80
2023-04-18T09:13:41.099Z,10.84
2023-04-18T09:16:46.747Z,11.19
2023-04-18T09:19:36.024Z,11.26
2023-04-18T09:22:27.183Z,11.26
2023-04-18T09:25:27.503Z,11.48
2023-04-18T09:28:26.953Z,11.41
2023-04-18T09:31:17.653Z,11.57
2023-04-18T09:34:06.973Z,11.58
2023-04-18T09:37:10.743Z,11.38
2023-04-18T09:40:01.294Z,11.52
2023-04-18T09:42:53.116Z,11.51
2023-04-18T09:45:43.441Z,11.67
2023-04-18T09:48:33.386Z,11.62
2023-04-18T09:51:23.128Z,11.66
2023-04-18T09:54:16.773Z,11.90
2023-04-18T09:57:13.569Z,11.89
2023-04-18T10:00:17.518Z,12.00
2023-04-18T10:03:09.819Z,12.07
2023-04-18T10:05:59.114Z,12.03
2023-04-18T10:08:49.997Z,11.85
2023-04-18T10:11:39.527Z,11.71
2023-04-18T10:14:32.939Z,11.92
2023-04-18T10:17:22.508Z,12.27
2023-04-18T10:20:21.157Z,12.10
2023-04-18T10:23:38.649Z,12.39
2023-04-18T10:26:50.272Z,12.61
2023-04-18T10:29:51.881Z,12.79
2023-04-18T10:32:42.643Z,13.17
2023-04-18T10:35:31.680Z,12.98
2023-04-18T10:38:25.431Z,13.46
2023-04-18T10:41:27.104Z,13.13
2023-04-18T10:44:23.350Z,13.04
2023-04-18T10:47:23.614Z,13.14
2023-04-18T10:50:14.059Z,12.87
2023-04-18T10:53:03.337Z,12.69
2023-04-18T10:55:58.246Z,12.57
2023-04-18T10:58:52.971Z,13.10
2023-04-18T11:01:47.591Z,13.17
2023-04-18T11:04:44.676Z,13.54
2023-04-18T11:07:36.081Z,13.73
2023-04-18T11:10:27.121Z,13.88
2023-04-18T11:13:17.130Z,14.17
2023-04-18T11:16:06.649Z,14.01
2023-04-18T11:18:55.989Z,13.68
2023-04-18T11:21:46.465Z,13.18
2023-04-18T11:24:35.751Z,13.09
2023-04-18T11:27:27.024Z,13.53
2023-04-18T11:30:17.174Z,13.58
2023-04-18T11:33:08.898Z,13.95
2023-04-18T11:35:59.830Z,14.04
2023-04-18T11:38:51.735Z,13.89
2023-04-18T11:41:44.286Z,14.60
2023-04-18T11:44:36.060Z,14.48
2023-04-18T11:47:27.034Z,14.54
2023-04-18T11:50:16.605Z,14.68
2023-04-18T11:53:06.266Z,14.11
2023-04-18T11:55:58.516Z,14.37
2023-04-18T11:58:48.383Z,14.51
2023-04-18T12:01:38.383Z,14.29
2023-04-18T12:04:27.793Z,14.52
2023-04-18T12:07:32.889Z,14.40
2023-04-18T12:10:29.869Z,14.10
2023-04-18T12:13:26.997Z,14.85
2023-04-18T12:16:16.106Z,15.41
2023-04-18T12:19:05.955Z,14.92
2023-04-18T12:22:01.512Z,15.36
2023-04-18T12:25:27.820Z,14.96
2023-04-18T12:28:18.641Z,14.87
2023-04-18T12:31:08.965Z,14.64
2023-04-18T12:34:00.112Z,14.85
2023-04-18T12:36:49.405Z,15.17
2023-04-18T12:39:39.290Z,15.64
2023-04-18T12:42:28.207Z,16.21
2023-04-18T12:45:18.561Z,16.23
2023-04-18T12:48:11.848Z,16.19
2023-04-18T12:51:01.562Z,15.84
2023-04-18T12:53:50.661Z,15.34
2023-04-18T12:56:40.892Z,15.46
2023-04-18T12:59:30.186Z,15.65
2023-04-18T13:02:19.347Z,15.73
2023-04-18T13:05:12.769Z,14.74
2023-04-18T13:10:53.845Z,14.41
2023-04-18T13:13:42.661Z,14.74
2023-04-18T13:16:31.796Z,14.90
2023-04-18T13:19:20.689Z,14.46
2023-04-18T13:22:10.934Z,13.72
2023-04-18T13:25:00.615Z,13.45
2023-04-18T13:27:50.351Z,14.06
2023-04-18T13:30:39.312Z,14.25
2023-04-18T13:33:29.065Z,15.42
2023-04-18T13:36:18.846Z,15.55
2023-04-18T13:39:09.623Z,15.19
2023-04-18T13:41:58.589Z,15.89
2023-04-18T13:44:48.472Z,16.35
2023-04-18T13:47:37.572Z,16.71
2023-04-18T13:50:26.542Z,16.89
2023-04-18T13:53:16.249Z,16.71
2023-04-18T13:56:07.540Z,16.84
2023-04-18T13:58:56.816Z,16.24
2023-04-18T14:01:46.574Z,15.18
2023-04-18T14:04:36.584Z,14.99
2023-04-18T14:07:26.393Z,14.96
2023-04-18T14:10:15.710Z,14.70
2023-04-18T14:13:06.234Z,14.07
2023-04-18T14:15:55.445Z,14.39
2023-04-18T14:18:44.420Z,14.22
2023-04-18T14:21:33.512Z,14.12
2023-04-18T14:24:23.416Z,14.10
2023-04-18T14:27:13.389Z,14.09
2023-04-18T14:30:04.313Z,14.31
2023-04-18T14:32:53.269Z,14.30
2023-04-18T14:35:42.645Z,14.16
2023-04-18T14:38:31.625Z,13.87
2023-04-18T14:41:21.086Z,13.82
2023-04-18T14:44:10.736Z,13.29
2023-04-18T14:47:05.629Z,12.99
2023-04-18T14:49:54.536Z,12.90
2023-04-18T14:52:43.684Z,12.92
2023-04-18T14:55:34.448Z,13.22
2023-04-18T14:58:23.468Z,13.16
2023-04-18T15:01:12.510Z,13.13
2023-04-18T15:04:04.932Z,13.41
2023-04-18T15:06:53.995Z,13.37
2023-04-18T15:09:44.475Z,13.41
2023-04-18T15:12:34.685Z,13.48
2023-04-18T15:15:25.151Z,13.50
2023-04-18T15:18:14.687Z,13.88
2023-04-18T15:21:05.380Z,13.58
2023-04-18T15:23:54.356Z,13.53
2023-04-18T15:26:43.830Z,13.21
2023-04-18T15:29:33.600Z,13.16
2023-04-18T15:32:23.163Z,13.01
2023-04-18T15:35:13.729Z,12.75
2023-04-18T15:38:04.217Z,13.05
2023-04-18T15:40:53.448Z,12.71
2023-04-18T15:43:42.930Z,12.40
2023-04-18T15:46:32.766Z,12.42
2023-04-18T15:49:22.042Z,12.33
2023-04-18T15:52:10.948Z,12.32
2023-04-18T15:55:01.769Z,12.30
2023-04-18T15:57:50.814Z,12.41
2023-04-18T16:00:39.958Z,12.19
2023-04-18T16:03:29.019Z,12.24
2023-04-18T16:06:21.299Z,12.34
2023-04-18T16:09:10.154Z,12.49
2023-04-18T16:12:01.545Z,12.40
2023-04-18T16:14:50.648Z,12.28
2023-04-18T16:17:39.826Z,12.54
2023-04-18T16:20:29.125Z,12.45
2023-04-18T16:23:20.251Z,12.61
2023-04-18T16:26:09.682Z,12.54
2023-04-18T16:29:00.127Z,12.47
2023-04-18T16:31:51.559Z,12.32
2023-04-18T16:34:40.799Z,12.16
2023-04-18T16:37:29.752Z,12.18
2023-04-18T16:40:18.663Z,12.21
2023-04-18T16:43:07.600Z,12.13
2023-04-18T16:46:00.784Z,12.36
2023-04-18T16:48:51.122Z,12.32
2023-04-18T16:51:41.346Z,12.17
2023-04-18T16:54:30.622Z,12.02
2023-04-18T16:57:19.577Z,12.09
2023-04-18T17:00:13.469Z,11.90
2023-04-18T17:03:06.819Z,12.07
2023-04-18T17:05:56.069Z,12.02
2023-04-18T17:08:45.786Z,11.82
2023-04-18T17:11:39.576Z,11.90
2023-04-18T17:14:28.943Z,11.81
2023-04-18T17:17:17.867Z,11.78
2023-04-18T17:20:09.968Z,11.82
2023-04-18T17:22:59.409Z,11.78
2023-04-18T17:25:48.461Z,11.74
2023-04-18T17:28:38.866Z,11.63
2023-04-18T17:31:28.513Z,11.75
2023-04-18T17:34:17.552Z,11.56
2023-04-18T17:37:08.229Z,11.41
2023-04-18T17:39:58.350Z,11.51
2023-04-18T17:42:47.309Z,11.37
2023-04-18T17:45:36.350Z,11.38
2023-04-18T17:48:25.894Z,11.42
2023-04-18T17:51:16.274Z,11.41
2023-04-18T17:54:09.666Z,10.92
2023-04-18T17:56:58.763Z,11.24
2023-04-18T17:59:47.928Z,11.31
2023-04-18T18:02:37.194Z,11.26
2023-04-18T18:05:27.613Z,11.17
2023-04-18T18:08:17.167Z,11.12
2023-04-18T18:11:07.772Z,11.23
2023-04-18T18:13:57.461Z,11.19
2023-04-18T18:16:46.772Z,10.98
2023-04-18T18:19:37.150Z,11.02
2023-04-18T18:22:26.275Z,11.11
2023-04-18T18:25:15.457Z,11.08
2023-04-18T18:28:07.187Z,10.95
2023-04-18T18:30:56.217Z,11.09
2023-04-18T18:33:45.370Z,11.13
2023-04-18T18:36:48.153Z,11.16
2023-04-18T18:39:37.741Z,11.03
2023-04-18T18:42:26.799Z,11.09
2023-04-18T18:45:23.921Z,11.08
2023-04-18T18:48:14.762Z,10.95
2023-04-18T18:51:06.745Z,11.06
2023-04-18T18:53:56.780Z,10.96
2023-04-18T18:56:47.884Z,10.99
2023-04-18T18:59:36.888Z,11.10
2023-04-18T19:02:38.187Z,11.02
2023-04-18T19:05:28.087Z,11.08
2023-04-18T19:08:24.896Z,11.07
2023-04-18T19:11:21.045Z,10.99
2023-04-18T19:14:14.384Z,10.92
2023-04-18T19:17:08.656Z,10.89
2023-04-18T19:20:04.426Z,10.80
2023-04-18T19:22:54.428Z,10.85
2023-04-18T19:25:47.380Z,10.79
2023-04-18T19:28:47.995Z,10.77
2023-04-18T19:31:37.744Z,10.84
2023-04-18T19:34:28.744Z,10.79
2023-04-18T19:37:27.102Z,10.79
2023-04-18T19:40:16.260Z,10.89
2023-04-18T19:43:05.340Z,10.72
2023-04-18T19:45:55.369Z,10.78
2023-04-18T19:48:44.858Z,10.91
2023-04-18T19:51:44.843Z,10.70
2023-04-18T19:54:42.180Z,10.69
2023-04-18T19:57:42.156Z,10.66
2023-04-18T20:00:40.968Z,10.71
2023-04-18T20:03:46.130Z,10.81
2023-04-18T20:06:45.686Z,10.68
2023-04-18T20:09:35.106Z,10.75
2023-04-18T20:12:25.689Z,10.69
2023-04-18T20:15:14.850Z,10.64
2023-04-18T20:18:03.863Z,10.69
2023-04-18T20:20:52.862Z,10.65
2023-04-18T20:23:42.727Z,10.62
2023-04-18T20:26:31.620Z,10.48
2023-04-18T20:29:22.062Z,10.64
2023-04-18T20:32:13.076Z,10.76
2023-04-18T20:35:02.828Z,10.67
2023-04-18T20:37:51.691Z,10.57
2023-04-18T20:40:42.720Z,10.64
2023-04-18T20:43:37.297Z,10.72
2023-04-18T20:46:27.664Z,10.72
2023-04-18T20:49:16.790Z,10.60
2023-04-18T20:52:09.710Z,10.65
2023-04-18T20:54:58.728Z,10.53
2023-04-18T20:57:47.865Z,10.61
2023-04-18T21:00:37.182Z,10.58
2023-04-18T21:03:28.424Z,10.35
2023-04-18T21:06:19.071Z,10.69
2023-04-18T21:09:08.449Z,10.78
2023-04-18T21:11:58.443Z,10.89
2023-04-18T21:14:48.065Z,10.82
2023-04-18T21:17:36.845Z,10.86
2023-04-18T21:20:27.311Z,10.96
2023-04-18T21:23:16.174Z,10.76
2023-04-18T21:26:05.079Z,10.76
2023-04-18T21:28:59.464Z,10.74
2023-04-18T21:31:49.328Z,10.73
2023-04-18T21:34:38.342Z,10.80
2023-04-18T21:37:28.948Z,10.71
2023-04-18T21:40:18.232Z,10.60
2023-04-18T21:43:07.145Z,10.75
2023-04-18T21:45:56.658Z,10.79
2023-04-18T21:48:48.559Z,10.90
2023-04-18T21:51:37.603Z,10.79
2023-04-18T21:54:27.900Z,10.78
2023-04-18T21:57:16.921Z,10.75
2023-04-18T22:00:10.263Z,10.70
2023-04-18T22:03:02.041Z,10.42
2023-04-18T22:05:52.223Z,10.70
2023-04-18T22:08:42.096Z,10.67
2023-04-18T22:11:33.377Z,10.59
2023-04-18T22:14:22.589Z,10.62
2023-04-18T22:17:11.486Z,10.82
2023-04-18T22:20:00.341Z,10.72
2023-04-18T22:22:49.562Z,10.83
2023-04-18T22:25:38.581Z,10.77
2023-04-18T22:28:28.970Z,10.89
2023-04-18T22:31:17.866Z,11.02
2023-04-18T22:34:06.807Z,10.92
2023-04-18T22:36:55.778Z,10.96
2023-04-18T22:39:44.686Z,10.81
2023-04-18T22:42:34.855Z,10.80
2023-04-18T22:45:25.908Z,10.91
2023-04-18T22:48:14.842Z,10.75
2023-04-18T22:51:03.751Z,10.78
2023-04-18T22:53:52.581Z,10.69
2023-04-18T22:56:41.809Z,10.67
2023-04-18T22:59:30.681Z,10.60
2023-04-18T23:02:21.069Z,10.87
2023-04-18T23:05:10.816Z,10.90
2023-04-18T23:08:00.704Z,10.77
2023-04-18T23:10:49.911Z,10.83
2023-04-18T23:13:38.721Z,10.68
2023-04-18T23:16:28.161Z,10.84
2023-04-18T23:19:18.500Z,10.80
2023-04-18T23:22:07.303Z,10.64
2023-04-18T23:24:56.756Z,10.49
2023-04-18T23:27:45.641Z,10.48
2023-04-18T23:30:37.788Z,10.53
2023-04-18T23:33:26.605Z,10.64
2023-04-18T23:36:16.803Z,10.64
2023-04-18T23:39:05.722Z,10.58
2023-04-18T23:41:54.724Z,10.58
2023-04-18T23:44:43.605Z,10.61
2023-04-18T23:47:32.632Z,10.61
2023-04-18T23:50:21.488Z,10.81
2023-04-18T23:53:11.823Z,10.62
2023-04-18T23:56:00.678Z,10.66
2023-04-18T23:58:49.870Z,10.77
